createdAt,value
2019-01-25T00:00:27.466Z,29.77
2019-01-25T00:02:57.206Z,28.50
2019-01-25T00:05:26.346Z,30.97
2019-01-25T00:07:55.367Z,29.63
2019-01-25T00:10:24.975Z,29.33
2019-01-25T00:12:54.085Z,28.63
2019-01-25T00:15:23.809Z,28.43
2019-01-25T00:17:53.007Z,27.27
2019-01-25T00:20:22.727Z,22.97
2019-01-25T00:22:55.926Z,24.03
2019-01-25T00:25:27.355Z,23.43
2019-01-25T00:27:56.787Z,25.03
2019-01-25T00:30:26.385Z,25.23
2019-01-25T00:32:55.749Z,26.37
2019-01-25T00:35:25.105Z,25.83
2019-01-25T00:37:54.806Z,27.37
2019-01-25T00:40:23.927Z,28.00
2019-01-25T00:43:12.646Z,25.43
2019-01-25T00:45:42.547Z,25.00
2019-01-25T00:48:11.866Z,25.50
2019-01-25T00:50:43.487Z,26.10
2019-01-25T00:55:55.009Z,25.17
2019-01-25T00:58:24.626Z,25.37
2019-01-25T01:00:53.900Z,24.80
2019-01-25T01:03:26.341Z,26.13
2019-01-25T01:05:55.822Z,26.07
2019-01-25T01:08:25.581Z,25.60
2019-01-25T01:11:06.860Z,27.77
2019-01-25T01:13:36.880Z,25.60
2019-01-25T01:16:25.980Z,27.60
2019-01-25T01:19:12.241Z,27.03
2019-01-25T01:21:36.982Z,26.80
2019-01-25T01:24:06.301Z,29.73
2019-01-25T01:27:01.000Z,29.53
2019-01-25T01:29:30.280Z,30.87
2019-01-25T01:32:00.260Z,27.77
2019-01-25T01:34:29.815Z,28.37
2019-01-25T01:37:00.396Z,30.17
2019-01-25T01:39:31.200Z,28.87
2019-01-25T01:42:00.577Z,29.97
2019-01-25T01:44:29.458Z,31.03
2019-01-25T01:46:58.877Z,31.03
2019-01-25T01:49:29.937Z,31.10
2019-01-25T01:52:00.677Z,29.80
2019-01-25T01:54:31.678Z,30.33
2019-01-25T01:57:00.696Z,28.63
2019-01-25T01:59:29.857Z,29.53
2019-01-25T02:02:02.535Z,28.87
2019-01-25T02:04:32.095Z,30.40
2019-01-25T02:07:05.135Z,31.53
2019-01-25T02:09:35.956Z,30.60
2019-01-25T02:12:05.476Z,31.17
2019-01-25T02:14:36.076Z,31.53
2019-01-25T02:17:05.237Z,30.30
2019-01-25T02:19:35.516Z,29.73
2019-01-25T02:22:05.036Z,30.97
2019-01-25T02:24:34.137Z,30.67
2019-01-25T02:27:04.916Z,30.73
2019-01-25T02:29:39.115Z,31.93
2019-01-25T02:32:08.737Z,31.07
2019-01-25T02:34:38.416Z,29.37
2019-01-25T02:37:07.737Z,30.33
2019-01-25T02:39:37.217Z,31.27
2019-01-25T02:42:06.735Z,30.93
2019-01-25T02:44:42.399Z,32.70
2019-01-25T02:47:15.317Z,30.50
2019-01-25T02:49:44.597Z,32.43
2019-01-25T02:52:14.055Z,31.27
2019-01-25T02:54:43.537Z,32.60
2019-01-25T02:57:21.840Z,28.63
2019-01-25T03:00:07.736Z,28.70
2019-01-25T03:02:38.658Z,29.43
2019-01-25T03:05:29.855Z,28.03
2019-01-25T03:07:59.697Z,28.70
2019-01-25T03:10:29.962Z,29.23
2019-01-25T03:13:00.796Z,27.50
2019-01-25T03:15:44.778Z,26.93
2019-01-25T03:18:21.079Z,27.50
2019-01-25T03:20:50.538Z,25.30
2019-01-25T03:23:25.397Z,26.73
2019-01-25T03:25:54.581Z,28.03
2019-01-25T03:28:23.997Z,27.70
2019-01-25T03:30:53.378Z,29.97
2019-01-25T03:33:26.206Z,28.60
2019-01-25T03:35:57.439Z,29.17
2019-01-25T03:38:27.078Z,30.07
2019-01-25T03:40:56.079Z,28.93
2019-01-25T03:43:25.578Z,28.17
2019-01-25T03:45:54.858Z,28.73
2019-01-25T03:48:24.239Z,28.87
2019-01-25T03:50:53.676Z,28.50
2019-01-25T03:53:23.197Z,27.00
2019-01-25T03:55:52.978Z,29.00
2019-01-25T03:58:22.697Z,27.50
2019-01-25T04:00:52.765Z,27.67
2019-01-25T04:03:21.546Z,26.40
2019-01-25T04:05:51.346Z,29.10
2019-01-25T04:08:20.584Z,26.63
2019-01-25T04:10:51.524Z,27.67
2019-01-25T04:15:53.267Z,26.17
2019-01-25T04:18:22.624Z,26.93
2019-01-25T04:20:53.305Z,27.93
2019-01-25T04:23:24.164Z,28.67
2019-01-25T04:25:56.824Z,29.50
2019-01-25T04:28:26.443Z,31.27
2019-01-25T04:30:57.345Z,29.53
2019-01-25T04:33:26.704Z,30.37
2019-01-25T04:35:59.344Z,30.33
2019-01-25T04:38:28.790Z,29.27
2019-01-25T04:40:57.725Z,30.23
2019-01-25T04:43:26.844Z,32.17
2019-01-25T04:45:58.412Z,29.50
2019-01-25T04:48:27.504Z,30.07
2019-01-25T04:50:58.545Z,31.33
2019-01-25T04:53:30.236Z,30.47
2019-01-25T04:56:00.221Z,31.63
2019-01-25T04:58:30.036Z,31.57
2019-01-25T05:01:03.047Z,31.23
2019-01-25T05:03:34.731Z,32.43
2019-01-25T05:06:03.969Z,30.10
2019-01-25T05:08:34.889Z,31.73
2019-01-25T05:11:08.073Z,29.63
2019-01-25T05:13:37.690Z,32.73
2019-01-25T05:16:13.217Z,31.67
2019-01-25T05:18:45.508Z,31.67
2019-01-25T05:21:19.701Z,32.10
2019-01-25T05:23:50.728Z,33.60
2019-01-25T05:26:20.141Z,33.00
2019-01-25T05:28:50.937Z,33.23
2019-01-25T05:31:19.999Z,33.73
2019-01-25T05:33:54.078Z,34.87
2019-01-25T05:36:25.380Z,34.30
2019-01-25T05:38:58.617Z,35.93
2019-01-25T05:41:29.266Z,35.20
2019-01-25T05:43:59.015Z,34.43
2019-01-25T05:46:29.436Z,33.93
2019-01-25T05:48:58.876Z,35.67
2019-01-25T05:51:33.531Z,34.83
2019-01-25T05:53:59.255Z,35.47
2019-01-25T05:56:28.837Z,38.37
2019-01-25T05:58:58.396Z,39.33
2019-01-25T06:01:27.803Z,37.57
2019-01-25T06:04:00.357Z,37.97
2019-01-25T06:06:29.757Z,38.10
2019-01-25T06:08:59.676Z,38.90
2019-01-25T06:11:35.580Z,36.90
2019-01-25T06:14:03.436Z,38.70
2019-01-25T06:16:34.119Z,39.77
2019-01-25T06:19:06.175Z,39.83
2019-01-25T06:21:35.404Z,39.93
2019-01-25T06:24:04.788Z,39.63
2019-01-25T06:26:43.064Z,38.67
2019-01-25T06:29:13.138Z,42.60
2019-01-25T06:31:48.797Z,44.80
2019-01-25T06:34:18.258Z,43.97
2019-01-25T06:36:49.061Z,45.57
2019-01-25T06:39:19.679Z,42.60
2019-01-25T06:41:53.196Z,41.07
2019-01-25T06:44:23.637Z,39.30
2019-01-25T06:46:55.745Z,38.53
2019-01-25T06:49:29.575Z,39.93
2019-01-25T06:52:00.638Z,39.87
2019-01-25T06:54:32.956Z,40.37
2019-01-25T06:57:05.060Z,38.87
2019-01-25T06:59:34.593Z,40.20
2019-01-25T07:02:07.016Z,46.63
2019-01-25T07:04:36.003Z,40.50
2019-01-25T07:07:08.111Z,40.87
2019-01-25T07:09:38.058Z,39.77
2019-01-25T07:12:08.702Z,40.57
2019-01-25T07:14:37.762Z,39.33
2019-01-25T07:17:07.203Z,42.23
2019-01-25T07:19:37.819Z,40.10
2019-01-25T07:22:07.361Z,40.40
2019-01-25T07:24:36.698Z,40.93
2019-01-25T07:27:05.978Z,41.40
2019-01-25T07:29:36.620Z,39.97
2019-01-25T07:32:05.757Z,40.30
2019-01-25T07:34:34.878Z,43.23
2019-01-25T07:37:04.316Z,44.87
2019-01-25T07:39:37.026Z,45.47
2019-01-25T07:42:07.456Z,43.47
2019-01-25T07:44:37.956Z,42.70
2019-01-25T07:47:06.938Z,41.90
2019-01-25T07:49:38.877Z,41.93
2019-01-25T07:52:08.318Z,42.53
2019-01-25T07:54:37.537Z,42.27
2019-01-25T07:57:10.106Z,39.70
2019-01-25T07:59:39.202Z,41.30
2019-01-25T08:02:24.388Z,41.03
2019-01-25T08:04:53.497Z,46.07
2019-01-25T08:07:24.820Z,41.23
2019-01-25T08:09:53.915Z,42.57
2019-01-25T08:12:23.025Z,46.10
2019-01-25T08:14:56.915Z,42.90
2019-01-25T08:17:25.958Z,44.87
2019-01-25T08:19:59.452Z,40.47
2019-01-25T08:22:28.692Z,44.47
2019-01-25T08:24:57.677Z,44.60
2019-01-25T08:27:28.489Z,42.67
2019-01-25T08:29:57.757Z,42.60
2019-01-25T08:32:31.958Z,43.30
2019-01-25T08:35:02.760Z,40.63
2019-01-25T08:37:32.471Z,43.73
2019-01-25T08:40:02.097Z,41.10
2019-01-25T08:42:31.297Z,39.50
2019-01-25T08:45:00.607Z,43.53
2019-01-25T08:47:31.867Z,39.43
2019-01-25T08:50:01.675Z,41.07
2019-01-25T08:52:31.145Z,42.00
2019-01-25T08:55:04.988Z,40.63
2019-01-25T08:57:34.180Z,47.20
2019-01-25T09:00:03.189Z,47.20
2019-01-25T09:02:33.899Z,48.00
2019-01-25T09:05:02.943Z,47.87
2019-01-25T09:07:32.800Z,47.53
2019-01-25T09:10:02.315Z,45.07
2019-01-25T09:12:31.600Z,47.67
2019-01-25T09:15:00.796Z,43.97
2019-01-25T09:17:30.575Z,42.33
2019-01-25T09:20:03.377Z,44.23
2019-01-25T09:22:34.236Z,43.37
2019-01-25T09:25:03.115Z,41.77
2019-01-25T09:27:33.755Z,40.83
2019-01-25T09:30:05.817Z,44.70
2019-01-25T09:32:35.079Z,47.03
2019-01-25T09:35:06.888Z,44.77
2019-01-25T09:37:36.237Z,42.97
2019-01-25T09:40:12.336Z,42.43
2019-01-25T09:42:41.583Z,43.50
2019-01-25T09:45:14.095Z,43.37
2019-01-25T09:47:43.356Z,43.50
2019-01-25T09:50:25.278Z,40.50
2019-01-25T09:52:54.225Z,41.87
2019-01-25T09:55:28.277Z,39.30
2019-01-25T09:58:00.317Z,40.43
2019-01-25T10:00:33.601Z,44.33
2019-01-25T10:03:02.702Z,41.03
2019-01-25T10:05:32.157Z,40.37
2019-01-25T10:08:01.598Z,38.73
2019-01-25T10:10:30.937Z,40.00
2019-01-25T10:13:01.117Z,38.60
2019-01-25T10:15:32.477Z,38.23
2019-01-25T10:18:01.917Z,40.90
2019-01-25T10:20:31.380Z,42.43
2019-01-25T10:23:02.435Z,37.77
2019-01-25T10:25:31.516Z,39.97
2019-01-25T10:28:00.603Z,41.17
2019-01-25T10:30:30.817Z,38.53
2019-01-25T10:33:03.577Z,38.70
2019-01-25T10:35:43.537Z,38.43
2019-01-25T10:38:17.438Z,37.87
2019-01-25T10:40:47.028Z,37.17
2019-01-25T10:43:16.797Z,38.93
2019-01-25T10:45:46.879Z,37.97
2019-01-25T10:48:19.317Z,38.23
2019-01-25T10:50:54.976Z,37.33
2019-01-25T10:53:27.038Z,36.63
2019-01-25T10:55:56.756Z,36.80
2019-01-25T10:58:28.882Z,36.50
2019-01-25T11:00:59.848Z,36.93
2019-01-25T11:03:29.269Z,37.33
2019-01-25T11:05:59.673Z,34.93
2019-01-25T11:08:29.424Z,36.50
2019-01-25T11:10:58.865Z,38.10
2019-01-25T11:13:31.901Z,38.90
2019-01-25T11:16:01.580Z,37.20
2019-01-25T11:18:31.041Z,37.90
2019-01-25T11:21:00.441Z,37.83
2019-01-25T11:23:35.518Z,37.33
2019-01-25T11:26:09.907Z,38.93
2019-01-25T11:28:38.940Z,37.50
2019-01-25T11:31:08.002Z,39.87
2019-01-25T11:33:37.262Z,36.30
2019-01-25T11:36:06.341Z,40.40
2019-01-25T11:38:36.682Z,38.07
2019-01-25T11:41:05.721Z,39.70
2019-01-25T11:43:35.221Z,39.13
2019-01-25T11:46:04.789Z,39.27
2019-01-25T11:48:34.286Z,38.83
2019-01-25T11:51:03.686Z,37.17
2019-01-25T11:53:32.783Z,39.00
2019-01-25T11:56:01.981Z,38.50
2019-01-25T11:58:30.920Z,39.20
2019-01-25T12:01:00.469Z,38.07
2019-01-25T12:03:29.948Z,39.83
2019-01-25T12:05:59.681Z,39.23
2019-01-25T12:08:29.299Z,39.07
2019-01-25T12:10:58.296Z,39.53
2019-01-25T12:13:27.458Z,38.67
2019-01-25T12:15:56.795Z,38.80
2019-01-25T12:18:27.294Z,38.13
2019-01-25T12:20:56.619Z,38.77
2019-01-25T12:23:26.078Z,38.87
2019-01-25T12:25:55.258Z,37.97
2019-01-25T12:28:24.246Z,39.73
2019-01-25T12:30:54.065Z,40.07
2019-01-25T12:33:23.266Z,39.97
2019-01-25T12:35:52.329Z,37.63
2019-01-25T12:38:21.396Z,40.13
2019-01-25T12:40:50.878Z,39.00
2019-01-25T12:43:24.416Z,38.53
2019-01-25T12:45:54.216Z,36.27
2019-01-25T12:48:23.339Z,38.47
2019-01-25T12:50:58.541Z,37.77
2019-01-25T12:53:27.683Z,39.20
2019-01-25T12:56:00.189Z,37.93
2019-01-25T12:58:30.828Z,34.90
2019-01-25T13:01:01.923Z,38.07
2019-01-25T13:03:31.500Z,39.77
2019-01-25T13:06:00.579Z,37.57
2019-01-25T13:08:29.918Z,36.63
2019-01-25T13:11:04.619Z,39.80
2019-01-25T13:13:34.142Z,39.13
2019-01-25T13:16:05.124Z,35.53
2019-01-25T13:18:41.225Z,37.33
2019-01-25T13:21:13.404Z,37.97
2019-01-25T13:23:42.703Z,36.67
2019-01-25T13:26:12.164Z,35.43
2019-01-25T13:28:41.969Z,38.07
2019-01-25T13:31:13.007Z,37.53
2019-01-25T13:33:42.384Z,37.30
2019-01-25T13:36:11.769Z,36.37
2019-01-25T13:38:42.548Z,35.67
2019-01-25T13:41:11.627Z,37.53
2019-01-25T13:43:40.848Z,36.23
2019-01-25T13:46:12.788Z,36.37
2019-01-25T13:48:45.125Z,36.47
2019-01-25T13:51:17.325Z,36.60
2019-01-25T13:53:46.886Z,35.53
2019-01-25T13:56:19.384Z,36.57
2019-01-25T13:58:51.828Z,38.33
2019-01-25T14:01:21.048Z,35.67
2019-01-25T14:03:50.138Z,35.23
2019-01-25T14:06:19.517Z,34.37
2019-01-25T14:08:48.943Z,33.10
2019-01-25T14:11:18.584Z,32.30
2019-01-25T14:13:48.006Z,30.13
2019-01-25T14:16:21.447Z,32.47
2019-01-25T14:18:52.230Z,33.93
2019-01-25T14:21:21.404Z,34.80
2019-01-25T14:23:53.585Z,33.27
2019-01-25T14:26:23.026Z,33.13
2019-01-25T14:28:52.064Z,34.67
2019-01-25T14:31:25.624Z,24.07
2019-01-25T14:33:56.802Z,22.70
2019-01-25T14:36:26.001Z,20.90
2019-01-25T14:38:56.863Z,29.87
2019-01-25T14:41:28.012Z,22.43
2019-01-25T14:43:57.126Z,24.00
2019-01-25T14:46:26.224Z,28.20
2019-01-25T14:49:05.288Z,32.90
2019-01-25T14:51:34.565Z,31.87
2019-01-25T14:54:06.740Z,31.57
2019-01-25T14:56:36.277Z,32.53
2019-01-25T14:59:06.876Z,33.50
2019-01-25T15:01:39.183Z,33.30
2019-01-25T15:04:08.823Z,32.33
2019-01-25T15:06:41.544Z,28.60
2019-01-25T15:09:11.663Z,30.13
2019-01-25T15:11:42.464Z,35.87
2019-01-25T15:14:14.884Z,38.03
2019-01-25T15:16:45.770Z,38.50
2019-01-25T15:19:19.304Z,31.47
2019-01-25T15:21:49.125Z,35.03
2019-01-25T15:24:19.861Z,34.53
2019-01-25T15:26:51.704Z,36.00
2019-01-25T15:29:21.288Z,35.47
2019-01-25T15:31:52.163Z,36.07
2019-01-25T15:34:21.423Z,34.17
2019-01-25T15:36:50.404Z,34.93
2019-01-25T15:39:22.905Z,34.20
2019-01-25T15:41:52.204Z,30.60
2019-01-25T15:44:22.784Z,30.47
2019-01-25T15:46:52.463Z,28.43
2019-01-25T15:49:21.886Z,28.60
2019-01-25T15:51:52.922Z,30.50
2019-01-25T15:54:23.927Z,30.83
2019-01-25T15:56:54.564Z,28.93
2019-01-25T15:59:26.577Z,31.20
2019-01-25T16:01:55.727Z,30.90
2019-01-25T16:04:34.620Z,34.53
2019-01-25T16:07:00.469Z,34.67
2019-01-25T16:09:29.835Z,32.50
2019-01-25T16:12:02.209Z,32.90
2019-01-25T16:14:33.229Z,32.63
2019-01-25T16:17:02.369Z,31.73
2019-01-25T16:19:35.701Z,32.10
2019-01-25T16:22:07.038Z,35.00
2019-01-25T16:24:39.376Z,33.27
2019-01-25T16:27:11.036Z,36.30
2019-01-25T16:29:40.475Z,37.33
2019-01-25T16:32:09.935Z,32.60
2019-01-25T16:34:40.376Z,35.37
2019-01-25T16:37:09.756Z,35.10
2019-01-25T16:39:39.135Z,36.17
2019-01-25T16:42:08.644Z,37.50
2019-01-25T16:44:38.205Z,37.37
2019-01-25T16:47:08.139Z,36.57
2019-01-25T16:49:38.918Z,38.17
2019-01-25T16:52:07.996Z,34.73
2019-01-25T16:54:37.418Z,33.00
2019-01-25T16:57:06.798Z,36.80
2019-01-25T16:59:36.638Z,34.87
2019-01-25T17:02:07.427Z,34.90
2019-01-25T17:04:36.785Z,37.90
2019-01-25T17:07:06.186Z,36.37
2019-01-25T17:09:35.498Z,34.73
2019-01-25T17:12:06.296Z,34.00
2019-01-25T17:14:37.636Z,36.37
2019-01-25T17:17:06.923Z,32.40
2019-01-25T17:19:36.136Z,35.13
2019-01-25T17:22:06.756Z,31.90
2019-01-25T17:24:36.056Z,33.57
2019-01-25T17:27:05.899Z,34.23
2019-01-25T17:29:35.037Z,33.63
2019-01-25T17:32:05.182Z,35.17
2019-01-25T17:34:34.860Z,32.30
2019-01-25T17:37:03.880Z,27.27
2019-01-25T17:39:33.440Z,24.10
2019-01-25T17:42:02.831Z,24.53
2019-01-25T17:44:32.332Z,25.10
2019-01-25T17:47:03.302Z,18.10
2019-01-25T17:49:32.504Z,17.73
2019-01-25T17:52:02.224Z,17.13
2019-01-25T17:54:31.402Z,13.73
2019-01-25T17:57:03.699Z,13.50
2019-01-25T17:59:33.266Z,13.07
2019-01-25T18:02:02.666Z,12.73
2019-01-25T18:04:34.971Z,12.63
2019-01-25T18:07:04.245Z,12.90
2019-01-25T18:09:33.564Z,14.20
2019-01-25T18:12:09.265Z,14.00
2019-01-25T18:14:49.031Z,13.60
2019-01-25T18:17:15.227Z,14.30
2019-01-25T18:19:44.565Z,12.30
2019-01-25T18:22:13.745Z,10.23
2019-01-25T18:24:43.265Z,11.00
2019-01-25T18:27:13.921Z,10.67
2019-01-25T18:29:44.856Z,10.40
2019-01-25T18:32:20.000Z,10.30
2019-01-25T18:34:51.079Z,10.27
2019-01-25T18:37:22.198Z,11.20
2019-01-25T18:39:52.020Z,14.40
2019-01-25T18:42:21.699Z,13.93
2019-01-25T18:44:56.818Z,11.23
2019-01-25T18:47:25.143Z,11.57
2019-01-25T18:49:54.516Z,10.23
2019-01-25T18:52:26.855Z,11.13
2019-01-25T18:54:57.427Z,10.60
2019-01-25T18:57:30.062Z,10.83
2019-01-25T18:59:59.690Z,11.10
2019-01-25T19:02:28.757Z,11.20
2019-01-25T19:04:59.577Z,11.33
2019-01-25T19:07:31.838Z,9.57
2019-01-25T19:10:05.780Z,9.67
2019-01-25T19:12:34.959Z,9.93
2019-01-25T19:15:13.009Z,10.53
2019-01-25T19:17:43.638Z,10.93
2019-01-25T19:20:19.719Z,11.97
2019-01-25T19:22:48.980Z,10.20
2019-01-25T19:25:18.507Z,11.20
2019-01-25T19:27:49.043Z,9.83
2019-01-25T19:30:21.640Z,10.63
2019-01-25T19:32:50.896Z,10.67
2019-01-25T19:35:22.685Z,10.37
2019-01-25T19:37:55.156Z,10.17
2019-01-25T19:40:36.118Z,11.07
2019-01-25T19:45:38.188Z,9.80
2019-01-25T19:48:08.339Z,9.60
2019-01-25T19:50:38.995Z,10.13
2019-01-25T19:53:27.796Z,10.03
2019-01-25T19:55:56.996Z,9.97
2019-01-25T19:58:28.097Z,11.07
2019-01-25T20:00:57.567Z,10.07
2019-01-25T20:03:27.026Z,9.73
2019-01-25T20:06:00.605Z,10.17
2019-01-25T20:08:32.965Z,10.10
2019-01-25T20:11:06.889Z,9.37
2019-01-25T20:13:36.625Z,10.47
2019-01-25T20:16:06.105Z,8.80
2019-01-25T20:18:35.527Z,9.60
2019-01-25T20:21:15.488Z,9.50
2019-01-25T20:23:44.850Z,9.73
2019-01-25T20:26:14.287Z,9.83
2019-01-25T20:28:43.508Z,9.03
2019-01-25T20:31:12.967Z,9.47
2019-01-25T20:33:42.025Z,8.77
2019-01-25T20:36:11.186Z,9.30
2019-01-25T20:38:41.269Z,9.10
2019-01-25T20:41:11.326Z,11.67
2019-01-25T20:43:40.278Z,9.80
2019-01-25T20:46:09.698Z,11.70
2019-01-25T20:48:38.824Z,11.17
2019-01-25T20:51:08.166Z,11.70
2019-01-25T20:53:37.634Z,10.87
2019-01-25T20:56:08.419Z,10.83
2019-01-25T20:59:28.559Z,9.67
2019-01-25T21:02:01.484Z,10.80
2019-01-25T21:04:42.370Z,10.80
2019-01-25T21:07:12.891Z,10.83
2019-01-25T21:09:47.560Z,11.37
2019-01-25T21:12:17.024Z,12.20
2019-01-25T21:14:46.123Z,12.67
2019-01-25T21:17:17.907Z,14.73
2019-01-25T21:19:46.882Z,13.63
2019-01-25T21:22:19.034Z,16.77
2019-01-25T21:24:51.487Z,14.67
2019-01-25T21:27:23.583Z,14.57
2019-01-25T21:29:53.183Z,17.03
2019-01-25T21:32:23.937Z,16.33
2019-01-25T21:34:53.013Z,17.43
2019-01-25T21:37:24.037Z,16.17
2019-01-25T21:39:55.225Z,16.53
2019-01-25T21:42:25.840Z,14.60
2019-01-25T21:44:55.297Z,16.03
2019-01-25T21:47:27.357Z,15.07
2019-01-25T21:49:57.698Z,17.27
2019-01-25T21:52:27.006Z,16.30
2019-01-25T21:54:59.506Z,15.50
2019-01-25T21:57:29.241Z,17.83
2019-01-25T21:59:58.720Z,16.83
2019-01-25T22:02:27.861Z,18.53
2019-01-25T22:04:57.286Z,15.90
2019-01-25T22:07:37.662Z,17.50
2019-01-25T22:10:15.390Z,17.43
2019-01-25T22:12:44.820Z,16.30
2019-01-25T22:15:21.544Z,16.27
2019-01-25T22:17:50.820Z,16.20
2019-01-25T22:20:25.503Z,16.97
2019-01-25T22:22:55.022Z,16.70
2019-01-25T22:25:30.362Z,16.37
2019-01-25T22:27:59.680Z,15.97
2019-01-25T22:30:32.622Z,14.90
2019-01-25T22:33:03.300Z,17.07
2019-01-25T22:35:34.027Z,14.40
2019-01-25T22:38:06.663Z,11.77
2019-01-25T22:40:35.999Z,11.37
2019-01-25T22:43:06.241Z,11.07
2019-01-25T22:45:35.802Z,12.93
2019-01-25T22:48:09.420Z,15.20
2019-01-25T22:50:40.319Z,12.70
2019-01-25T22:53:28.926Z,13.13
2019-01-25T22:56:01.358Z,12.43
2019-01-25T22:58:31.000Z,12.13
2019-01-25T23:01:12.131Z,11.90
2019-01-25T23:03:53.106Z,11.67
2019-01-25T23:06:39.985Z,10.03
2019-01-25T23:09:17.767Z,10.80
2019-01-25T23:11:47.606Z,9.77
2019-01-25T23:14:18.785Z,9.20
2019-01-25T23:16:53.055Z,9.90
2019-01-25T23:19:25.407Z,8.47
2019-01-25T23:21:57.666Z,8.60
2019-01-25T23:24:27.245Z,10.23
2019-01-25T23:26:56.685Z,10.63
2019-01-25T23:29:26.033Z,10.77
2019-01-25T23:31:57.064Z,8.10
2019-01-25T23:34:31.344Z,8.80
2019-01-25T23:37:02.067Z,10.20
2019-01-25T23:39:33.105Z,9.03
2019-01-25T23:42:04.145Z,8.87
2019-01-25T23:44:36.618Z,9.47
2019-01-25T23:47:06.605Z,8.63
2019-01-25T23:49:36.075Z,11.20
2019-01-25T23:52:05.415Z,11.07
2019-01-25T23:57:15.516Z,11.17
2019-01-25T23:59:44.555Z,9.90
